Terminal Aerodrome Forecast
Issued by NWS

Home | Current Version | Previous Version | Text Only | Print | Product List | Glossary On
Versions: 1 2 3 4 5 6 7 8 9 10 11 12 13 14 15 16 17 18 19
000
FTUS43 KGRB 222321
TAFMTW
TAF
KMTW 222321Z 2300/2324 02015G26KT P6SM OVC003
      TEMPO 2300/2304 5SM -RADZ BR OVC006
     FM230400 02014G24KT P6SM VCSH OVC008
     FM230900 01016G24KT P6SM -SN OVC010 PROB30 2309/2313 4SM -SHSN
      OVC003
     FM231500 35015G26KT P6SM OVC015
     FM231900 34014G25KT P6SM BKN040
     FM232100 34013G17KT P6SM SCT060=

USA.gov is the U.S. government's official web portal to all federal, state and local government web resources and services.